createdAt,value
2023-01-11T00:01:40.811Z,1.6
2023-01-11T00:04:42.823Z,1.9
2023-01-11T00:07:44.722Z,2.1
2023-01-11T00:10:46.702Z,1.9
2023-01-11T00:13:48.664Z,1.7
2023-01-11T00:16:50.657Z,1.5
2023-01-11T00:19:52.577Z,2.1
2023-01-11T00:22:54.522Z,1.7
2023-01-11T00:25:56.513Z,2
2023-01-11T00:28:58.466Z,1.5
2023-01-11T00:32:00.442Z,1.5
2023-01-11T00:35:02.390Z,2
2023-01-11T00:38:04.360Z,1.8
2023-01-11T00:41:06.324Z,1.4
2023-01-11T00:44:08.311Z,1.6
2023-01-11T00:47:10.241Z,2
2023-01-11T00:50:12.192Z,1.4
2023-01-11T00:53:14.160Z,1.5
2023-01-11T00:56:16.175Z,1.5
2023-01-11T00:59:18.122Z,1.5
2023-01-11T01:02:20.104Z,1.5
2023-01-11T01:05:22.064Z,1.6
2023-01-11T01:08:24.019Z,1.5
2023-01-11T01:11:25.956Z,1.4
2023-01-11T01:14:27.939Z,1.2
2023-01-11T01:17:29.880Z,1.5
2023-01-11T01:20:31.858Z,1.4
2023-01-11T01:23:33.833Z,1.4
2023-01-11T01:26:35.782Z,1.8
2023-01-11T01:29:37.824Z,1.2
2023-01-11T01:32:39.762Z,1.3
2023-01-11T01:35:41.693Z,1.3
2023-01-11T01:38:43.629Z,1.4
2023-01-11T01:41:45.613Z,1.4
2023-01-11T01:44:47.643Z,1.4
2023-01-11T01:47:49.512Z,1.3
2023-01-11T01:50:51.452Z,1.6
2023-01-11T01:53:53.421Z,1.3
2023-01-11T01:56:55.382Z,1.8
2023-01-11T01:59:57.328Z,1.5
2023-01-11T02:02:59.397Z,1.4
2023-01-11T02:06:01.261Z,1.3
2023-01-11T02:09:03.223Z,1.5
2023-01-11T02:12:05.182Z,1.1
2023-01-11T02:15:07.161Z,1.4
2023-01-11T02:18:09.144Z,1.4
2023-01-11T02:21:11.103Z,1.3
2023-01-11T02:24:13.072Z,1.1
2023-01-11T02:27:15.018Z,1.6
2023-01-11T02:30:16.976Z,1.2
2023-01-11T02:33:18.941Z,1.4
2023-01-11T02:36:20.913Z,1.6
2023-01-11T02:39:22.883Z,1.7
2023-01-11T02:42:24.838Z,1.5
2023-01-11T02:45:26.800Z,1.3
2023-01-11T02:48:28.765Z,2.1
2023-01-11T02:51:30.752Z,1.7
2023-01-11T02:54:32.692Z,1.7
2023-01-11T02:57:34.634Z,1.5
2023-01-11T03:00:36.593Z,1.7
2023-01-11T03:03:38.581Z,1.3
2023-01-11T03:06:40.647Z,1.5
2023-01-11T03:09:42.473Z,1.8
2023-01-11T03:12:44.423Z,1.6
2023-01-11T03:15:46.440Z,1.6
2023-01-11T03:18:48.340Z,1.6
2023-01-11T03:21:50.306Z,1.8
2023-01-11T03:24:52.272Z,1.7
2023-01-11T03:27:54.269Z,1.9
2023-01-11T03:30:56.247Z,1.3
2023-01-11T03:33:58.153Z,1.4
2023-01-11T03:37:00.110Z,1.8
2023-01-11T03:40:02.119Z,1.5
2023-01-11T03:43:04.067Z,2.3
2023-01-11T03:46:06.053Z,1.7
2023-01-11T03:49:08.001Z,1.6
2023-01-11T03:52:09.969Z,1.7
2023-01-11T03:55:11.935Z,1.4
2023-01-11T03:58:13.888Z,1.7
2023-01-11T04:01:15.909Z,1.4
2023-01-11T04:04:17.834Z,1.7
2023-01-11T04:07:19.771Z,1.2
2023-01-11T04:10:21.730Z,1.4
2023-01-11T04:13:23.690Z,2
2023-01-11T04:16:25.736Z,1.4
2023-01-11T04:19:27.591Z,1.9
2023-01-11T04:22:29.583Z,1.6
2023-01-11T04:25:31.530Z,1.8
2023-01-11T04:28:33.499Z,1.4
2023-01-11T04:31:35.520Z,1.5
2023-01-11T04:34:37.410Z,1.4
2023-01-11T04:37:39.373Z,1.5
2023-01-11T04:40:41.366Z,1.7
2023-01-11T04:43:43.295Z,1.5
2023-01-11T04:46:45.271Z,2
2023-01-11T04:49:47.221Z,1.9
2023-01-11T04:52:49.367Z,1.9
2023-01-11T04:55:51.123Z,2
2023-01-11T04:58:53.116Z,2.1
2023-01-11T05:01:55.079Z,2
2023-01-11T05:04:57.058Z,1.8
2023-01-11T05:07:59.003Z,2.4
2023-01-11T05:11:00.983Z,2.4
2023-01-11T05:14:02.906Z,2.4
2023-01-11T05:17:04.893Z,1.6
2023-01-11T05:20:06.880Z,2.1
2023-01-11T05:23:08.808Z,2.2
2023-01-11T05:26:10.763Z,2.3
2023-01-11T05:29:12.725Z,2.4
2023-01-11T05:32:14.679Z,2.3
2023-01-11T05:35:16.646Z,2
2023-01-11T05:38:18.596Z,1.9
2023-01-11T05:41:20.588Z,2.2
2023-01-11T05:44:22.548Z,2
2023-01-11T05:47:24.524Z,2
2023-01-11T05:50:26.480Z,1.7
2023-01-11T05:53:28.426Z,1.7
2023-01-11T05:56:31.597Z,1.5
2023-01-11T05:59:33.568Z,1.8
2023-01-11T06:02:34.412Z,1.9
2023-01-11T06:05:36.287Z,1.7
2023-01-11T06:08:38.251Z,1.8
2023-01-11T06:11:40.191Z,1.6
2023-01-11T06:14:42.148Z,1.8
2023-01-11T06:17:44.102Z,1.8
2023-01-11T06:20:46.069Z,1.9
2023-01-11T06:23:48.050Z,2
2023-01-11T06:26:50.152Z,2
2023-01-11T06:29:51.928Z,2.7
2023-01-11T06:32:53.896Z,2.6
2023-01-11T06:35:55.880Z,2.6
2023-01-11T06:38:57.818Z,3.5
2023-01-11T06:41:59.793Z,3.6
2023-01-11T06:45:01.734Z,3.1
2023-01-11T06:48:03.698Z,2.9
2023-01-11T06:51:05.675Z,4
2023-01-11T06:54:07.700Z,3
2023-01-11T06:57:09.564Z,4.6
2023-01-11T07:00:11.589Z,3.4
2023-01-11T07:03:13.535Z,4.6
2023-01-11T07:06:15.521Z,3.4
2023-01-11T07:09:17.484Z,3.6
2023-01-11T07:12:19.430Z,3.5
2023-01-11T07:15:21.402Z,4.3
2023-01-11T07:18:23.362Z,4.2
2023-01-11T07:21:25.312Z,4.1
2023-01-11T07:24:27.262Z,4.3
2023-01-11T07:27:29.238Z,4
2023-01-11T07:30:31.309Z,4.3
2023-01-11T07:33:33.166Z,4.8
2023-01-11T07:36:35.139Z,4.2
2023-01-11T07:39:43.059Z,3.8
2023-01-11T07:42:39.066Z,4.4
2023-01-11T07:45:45.594Z,3.8
2023-01-11T07:48:42.990Z,3.9
2023-01-11T07:51:44.941Z,3.5
2023-01-11T07:54:47.009Z,4.5
2023-01-11T07:57:48.860Z,4.3
2023-01-11T08:00:50.873Z,4.1
2023-01-11T08:03:52.861Z,5.1
2023-01-11T08:06:54.747Z,3.6
2023-01-11T08:09:56.718Z,3.5
2023-01-11T08:12:58.695Z,3.6
2023-01-11T08:16:00.757Z,4
2023-01-11T08:19:02.619Z,4.7
2023-01-11T08:22:04.562Z,4.5
2023-01-11T08:25:06.540Z,4.1
2023-01-11T08:28:08.487Z,4
2023-01-11T08:31:10.485Z,3.8
2023-01-11T08:34:12.427Z,3.9
2023-01-11T08:37:14.379Z,5.2
2023-01-11T08:40:16.341Z,4.5
2023-01-11T08:43:18.307Z,3.8
2023-01-11T08:46:20.378Z,4.6
2023-01-11T08:49:22.198Z,4.6
2023-01-11T08:52:24.143Z,3.7
2023-01-11T08:55:26.136Z,3.3
2023-01-11T08:58:28.083Z,4.3
2023-01-11T09:01:30.073Z,4.3
2023-01-11T09:04:31.986Z,5
2023-01-11T09:07:33.963Z,4.2
2023-01-11T09:10:35.915Z,4
2023-01-11T09:13:37.889Z,5.1
2023-01-11T09:16:39.836Z,5.8
2023-01-11T09:19:41.780Z,5
2023-01-11T09:22:43.743Z,6.2
2023-01-11T09:25:45.735Z,4.6
2023-01-11T09:28:47.791Z,4.4
2023-01-11T09:31:49.647Z,5.7
2023-01-11T09:34:51.588Z,5
2023-01-11T09:37:53.658Z,5.7
2023-01-11T09:40:55.531Z,6
2023-01-11T09:43:57.482Z,6.5
2023-01-11T09:46:59.445Z,6.5
2023-01-11T09:50:01.426Z,5.6
2023-01-11T09:53:03.393Z,4.8
2023-01-11T09:56:05.396Z,4.3
2023-01-11T09:59:07.312Z,5.8
2023-01-11T10:02:09.288Z,4.2
2023-01-11T10:05:11.281Z,4.8
2023-01-11T10:18:21.676Z,3
2023-01-11T10:18:34.909Z,3.1
2023-01-11T10:20:21.132Z,2.8
2023-01-11T10:23:23.019Z,2.9
2023-01-11T10:26:25.013Z,2.7
2023-01-11T10:29:26.971Z,3
2023-01-11T10:32:28.876Z,2.3
2023-01-11T10:35:30.854Z,2
2023-01-11T10:38:32.791Z,2.2
2023-01-11T10:41:34.779Z,2.7
2023-01-11T10:44:36.736Z,2.3
2023-01-11T10:47:38.675Z,2.2
2023-01-11T10:50:40.650Z,2.6
2023-01-11T10:53:42.607Z,2.8
2023-01-11T10:57:01.652Z,3.2
2023-01-11T10:59:46.548Z,3.8
2023-01-11T11:02:48.500Z,2.7
2023-01-11T11:05:50.484Z,2.8
2023-01-11T11:08:52.439Z,2.4
2023-01-11T11:11:54.404Z,2.4
2023-01-11T11:14:56.383Z,2.7
2023-01-11T11:17:58.334Z,2.5
2023-01-11T11:21:00.315Z,2.6
2023-01-11T11:24:02.307Z,2.5
2023-01-11T11:27:04.415Z,2.2
2023-01-11T11:30:06.213Z,2.1
2023-01-11T11:33:08.208Z,2
2023-01-11T11:36:10.168Z,2.3
2023-01-11T11:39:12.103Z,2.8
2023-01-11T11:42:14.083Z,2
2023-01-11T11:45:16.041Z,1.6
2023-01-11T11:48:18.018Z,1.6
2023-01-11T11:51:20.008Z,1.3
2023-01-11T11:54:21.955Z,1.3
2023-01-11T11:57:23.900Z,1.5
2023-01-11T12:00:25.859Z,1.6
2023-01-11T12:03:28.433Z,1.2
2023-01-11T12:06:29.793Z,1.1
2023-01-11T12:09:31.788Z,1.2
2023-01-11T12:12:33.719Z,0.9
2023-01-11T12:15:35.673Z,1
2023-01-11T12:18:37.678Z,1
2023-01-11T12:21:39.597Z,1
2023-01-11T12:24:41.561Z,1.2
2023-01-11T12:27:43.517Z,1.1
2023-01-11T12:30:45.582Z,1.3
2023-01-11T12:33:47.473Z,1.3
2023-01-11T12:36:49.446Z,1.4
2023-01-11T12:39:51.406Z,1.8
2023-01-11T12:42:53.359Z,1.5
2023-01-11T12:45:55.346Z,1.5
2023-01-11T12:48:57.360Z,2.1
2023-01-11T12:51:59.267Z,1.8
2023-01-11T12:55:01.281Z,2
2023-01-11T12:58:03.198Z,1.6
2023-01-11T13:01:05.197Z,1.7
2023-01-11T13:04:07.146Z,2
2023-01-11T13:07:09.078Z,1.9
2023-01-11T13:10:11.129Z,1.8
2023-01-11T13:13:12.990Z,2
2023-01-11T13:16:14.991Z,1.8
2023-01-11T13:19:16.945Z,1.9
2023-01-11T13:22:18.912Z,1.8
2023-01-11T13:25:20.829Z,1.4
2023-01-11T13:28:24.309Z,1.5
2023-01-11T13:31:24.792Z,1.4
2023-01-11T13:34:26.751Z,1.6
2023-01-11T13:37:28.691Z,1.6
2023-01-11T13:40:30.667Z,1.5
2023-01-11T13:43:32.606Z,2.2
2023-01-11T13:46:34.658Z,2.2
2023-01-11T13:49:36.537Z,1.4
2023-01-11T13:52:38.509Z,1.8
2023-01-11T13:55:40.621Z,1.4
2023-01-11T13:58:43.404Z,1.6
2023-01-11T14:01:45.868Z,1.5
2023-01-11T14:04:47.832Z,1.2
2023-01-11T14:07:49.790Z,1.1
2023-01-11T14:10:51.735Z,1.7
2023-01-11T14:13:53.777Z,1.4
2023-01-11T14:16:55.721Z,0.8
2023-01-11T14:19:57.665Z,0.8
2023-01-11T14:22:59.657Z,0.9
2023-01-11T14:26:01.605Z,0.9
2023-01-11T14:29:03.567Z,0.9
2023-01-11T14:32:05.521Z,0.9
2023-01-11T14:35:07.481Z,0.8
2023-01-11T14:38:09.435Z,0.9
2023-01-11T14:41:11.413Z,1.5
2023-01-11T14:44:13.366Z,1.6
2023-01-11T14:47:15.322Z,1.3
2023-01-11T14:50:17.293Z,1.4
2023-01-11T14:53:19.278Z,1.3
2023-01-11T14:56:21.218Z,1.4
2023-01-11T14:59:23.181Z,1.2
2023-01-11T15:02:25.131Z,1.3
2023-01-11T15:05:27.081Z,1.7
2023-01-11T15:08:29.053Z,1.5
2023-01-11T15:11:31.019Z,1.3
2023-01-11T15:14:32.971Z,1.4
2023-01-11T15:17:34.931Z,1.7
2023-01-11T15:20:36.914Z,1.7
2023-01-11T15:23:38.832Z,1.8
2023-01-11T15:26:40.855Z,1.2
2023-01-11T15:29:42.769Z,1.6
2023-01-11T15:32:44.720Z,1.7
2023-01-11T15:35:46.673Z,1.5
2023-01-11T15:38:48.633Z,1.4
2023-01-11T15:41:50.761Z,1.3
2023-01-11T15:44:52.588Z,1.8
2023-01-11T15:47:54.535Z,1.5
2023-01-11T15:50:56.512Z,1.9
2023-01-11T15:53:58.478Z,2
2023-01-11T15:57:00.415Z,1.8
2023-01-11T16:00:02.373Z,1.6
2023-01-11T16:03:04.384Z,1.9
2023-01-11T16:06:06.314Z,1.4
2023-01-11T16:09:08.268Z,2.1
2023-01-11T16:12:10.225Z,1.6
2023-01-11T16:15:12.187Z,1.4
2023-01-11T16:18:14.172Z,1.7
2023-01-11T16:21:16.137Z,1.7
2023-01-11T16:24:18.100Z,1.8
2023-01-11T16:27:20.181Z,1.6
2023-01-11T16:30:22.034Z,1.9
2023-01-11T16:33:24.004Z,1.6
2023-01-11T16:36:25.957Z,1.9
2023-01-11T16:39:27.924Z,1.8
2023-01-11T16:42:29.898Z,2.1
2023-01-11T16:45:31.927Z,1.8
2023-01-11T16:48:33.833Z,2.2
2023-01-11T16:51:35.808Z,2.2
2023-01-11T16:54:37.759Z,2.2
2023-01-11T16:57:39.724Z,1.6
2023-01-11T17:00:41.730Z,2.2
2023-01-11T17:03:44.168Z,2
2023-01-11T17:06:45.625Z,2.1
2023-01-11T17:09:47.639Z,2
2023-01-11T17:12:49.634Z,2.7
2023-01-11T17:15:51.604Z,1.9
2023-01-11T17:18:53.545Z,2.3
2023-01-11T17:21:55.844Z,1.9
2023-01-11T17:24:57.944Z,2.4
2023-01-11T17:27:59.899Z,2
2023-01-11T17:31:01.893Z,1.8
2023-01-11T17:34:04.715Z,1.8
2023-01-11T17:37:06.671Z,2.3
2023-01-11T17:40:08.619Z,2
2023-01-11T17:43:10.579Z,1.8
2023-01-11T17:46:12.583Z,1.9
2023-01-11T17:49:14.511Z,2.6
2023-01-11T17:52:16.497Z,2
2023-01-11T17:55:18.445Z,1.8
2023-01-11T17:58:20.435Z,2.2
2023-01-11T18:01:22.452Z,2.1
2023-01-11T18:04:24.353Z,1.9
2023-01-11T18:07:26.304Z,1.8
2023-01-11T18:10:28.259Z,2.3
2023-01-11T18:13:30.229Z,1.9
2023-01-11T18:16:32.235Z,2.3
2023-01-11T18:19:34.142Z,2.4
2023-01-11T18:22:36.095Z,2.3
2023-01-11T18:25:38.073Z,2
2023-01-11T18:28:40.040Z,1.9
2023-01-11T18:31:42.194Z,2
2023-01-11T18:34:44.164Z,1.8
2023-01-11T18:37:46.144Z,2.1
2023-01-11T18:40:48.117Z,2
2023-01-11T18:43:50.069Z,2.2
2023-01-11T18:46:52.049Z,2.4
2023-01-11T18:49:54.092Z,1.7
2023-01-11T18:52:55.977Z,2.1
2023-01-11T18:55:57.936Z,1.9
2023-01-11T18:58:59.920Z,1.6
2023-01-11T19:02:15.918Z,2.1
2023-01-11T19:05:03.825Z,1.6
2023-01-11T19:08:05.917Z,2.6
2023-01-11T19:11:07.864Z,1.8
2023-01-11T19:14:09.854Z,1.9
2023-01-11T19:17:11.799Z,1.8
2023-01-11T19:20:13.788Z,1.6
2023-01-11T19:23:15.738Z,2.1
2023-01-11T19:26:17.814Z,2.1
2023-01-11T19:29:19.751Z,2.1
2023-01-11T19:32:21.748Z,2.1
2023-01-11T19:35:23.713Z,2.2
2023-01-11T19:38:25.878Z,2.5
2023-01-11T19:41:27.806Z,2
2023-01-11T19:44:29.760Z,2
2023-01-11T19:47:31.735Z,2
2023-01-11T19:50:33.683Z,2.9
2023-01-11T19:53:35.673Z,2.1
2023-01-11T19:56:37.612Z,2.4
2023-01-11T19:59:39.597Z,1.9
2023-01-11T20:02:41.555Z,2.2
2023-01-11T20:05:43.542Z,2.2
2023-01-11T20:08:45.452Z,2.2
2023-01-11T20:11:47.402Z,1.5
2023-01-11T20:14:49.365Z,2.4
2023-01-11T20:17:51.335Z,1.8
2023-01-11T20:20:53.311Z,1.9
2023-01-11T20:23:55.272Z,1.8
2023-01-11T20:26:57.371Z,2.4
2023-01-11T20:29:59.197Z,2.1
2023-01-11T20:33:01.214Z,1.9
2023-01-11T20:36:03.188Z,2.2
2023-01-11T20:39:05.156Z,2
2023-01-11T20:42:07.106Z,2.1
2023-01-11T20:45:09.087Z,2.3
2023-01-11T20:48:11.059Z,1.6
2023-01-11T20:51:13.006Z,1.5
2023-01-11T20:54:14.980Z,2.3
2023-01-11T20:57:16.937Z,1.6
2023-01-11T21:00:18.930Z,2.2
2023-01-11T21:03:20.870Z,2
2023-01-11T21:06:22.799Z,1.9
2023-01-11T21:09:24.786Z,1.7
2023-01-11T21:12:26.750Z,1.7
2023-01-11T21:15:28.714Z,2.2
2023-01-11T21:18:30.687Z,1.9
2023-01-11T21:21:32.633Z,2.1
2023-01-11T21:24:34.597Z,1.7
2023-01-11T21:27:36.584Z,1.7
2023-01-11T21:30:38.536Z,2.1
2023-01-11T21:33:40.509Z,1.7
2023-01-11T21:36:42.470Z,2.2
2023-01-11T21:39:44.474Z,2.5
2023-01-11T21:42:46.372Z,2.1
2023-01-11T21:45:48.342Z,2.5
2023-01-11T21:48:50.324Z,2.2
2023-01-11T21:51:52.250Z,2.1
2023-01-11T21:54:54.250Z,1.9
2023-01-11T21:57:56.165Z,1.9
2023-01-11T22:00:58.168Z,1.8
2023-01-11T22:04:00.142Z,2
2023-01-11T22:07:02.056Z,2.4
2023-01-11T22:10:05.227Z,1.8
2023-01-11T22:13:05.971Z,2.2
2023-01-11T22:16:07.938Z,1.7
2023-01-11T22:19:09.911Z,1.5
2023-01-11T22:22:11.901Z,2.1
2023-01-11T22:25:13.837Z,1.9
2023-01-11T22:28:15.809Z,1.9
2023-01-11T22:31:17.794Z,1.9
2023-01-11T22:34:19.738Z,2.1
2023-01-11T22:37:21.654Z,1.8
2023-01-11T22:40:23.626Z,2.7
2023-01-11T22:43:25.580Z,2.4
2023-01-11T22:46:27.544Z,1.9
2023-01-11T22:49:29.532Z,1.9
2023-01-11T22:52:31.503Z,2.1
2023-01-11T22:55:33.477Z,1.8
2023-01-11T22:58:35.420Z,1.9
2023-01-11T23:01:37.378Z,2.2
2023-01-11T23:04:39.339Z,2
2023-01-11T23:07:41.341Z,2.1
2023-01-11T23:10:43.256Z,1.9
2023-01-11T23:13:45.231Z,2
2023-01-11T23:16:47.280Z,1.7
2023-01-11T23:19:49.166Z,2
2023-01-11T23:22:51.119Z,2.6
2023-01-11T23:25:53.086Z,2.6
2023-01-11T23:28:55.046Z,2.2
2023-01-11T23:31:57.207Z,2.7
2023-01-11T23:34:59.039Z,2
2023-01-11T23:38:00.999Z,2.3
2023-01-11T23:41:02.962Z,1.9
2023-01-11T23:44:04.930Z,1.8
2023-01-11T23:47:06.889Z,1.9
2023-01-11T23:50:08.862Z,1.9
2023-01-11T23:53:10.801Z,2.1
2023-01-11T23:56:12.792Z,1.9
2023-01-11T23:59:14.724Z,2
